createdAt,value
2023-02-20T00:01:34.691Z,6.50
2023-02-20T00:04:01.471Z,6.97
2023-02-20T00:06:28.220Z,6.82
2023-02-20T00:08:54.972Z,7.25
2023-02-20T00:11:21.849Z,6.95
2023-02-20T00:13:49.851Z,6.73
2023-02-20T00:16:16.840Z,7.30
2023-02-20T00:18:44.949Z,7.70
2023-02-20T00:21:11.803Z,7.30
2023-02-20T00:23:38.655Z,7.20
2023-02-20T00:26:09.956Z,6.70
2023-02-20T00:28:39.498Z,7.55
2023-02-20T00:31:16.105Z,7.45
2023-02-20T00:33:43.041Z,7.63
2023-02-20T00:36:16.586Z,7.28
2023-02-20T00:38:44.595Z,7.37
2023-02-20T00:41:14.254Z,7.20
2023-02-20T00:43:42.171Z,7.00
2023-02-20T00:46:13.373Z,7.03
2023-02-20T00:48:40.485Z,7.78
2023-02-20T00:51:07.171Z,7.50
2023-02-20T00:53:33.980Z,7.90
2023-02-20T00:56:00.681Z,7.78
2023-02-20T00:58:27.459Z,7.97
2023-02-20T01:00:54.158Z,8.52
2023-02-20T01:03:20.953Z,8.57
2023-02-20T01:05:47.760Z,8.02
2023-02-20T01:08:14.475Z,7.80
2023-02-20T01:10:41.294Z,7.95
2023-02-20T01:13:08.113Z,8.70
2023-02-20T01:15:36.168Z,8.33
2023-02-20T01:18:03.230Z,7.85
2023-02-20T01:20:29.987Z,8.75
2023-02-20T01:22:56.801Z,8.90
2023-02-20T01:25:23.766Z,9.27
2023-02-20T01:27:50.473Z,9.37
2023-02-20T01:30:17.500Z,9.82
2023-02-20T01:32:44.343Z,10.63
2023-02-20T01:35:11.036Z,10.93
2023-02-20T01:37:37.783Z,10.80
2023-02-20T01:40:05.950Z,11.87
2023-02-20T01:42:34.442Z,11.55
2023-02-20T01:45:29.241Z,11.07
2023-02-20T01:47:58.243Z,12.52
2023-02-20T01:50:41.669Z,11.77
2023-02-20T01:53:18.851Z,12.57
2023-02-20T01:55:57.933Z,13.48
2023-02-20T01:58:46.804Z,12.88
2023-02-20T02:01:13.694Z,11.63
2023-02-20T02:03:44.786Z,12.18
2023-02-20T02:06:14.259Z,12.77
2023-02-20T02:08:43.220Z,14.05
2023-02-20T02:11:13.702Z,14.30
2023-02-20T02:13:42.636Z,12.77
2023-02-20T02:16:27.372Z,11.52
2023-02-20T02:19:26.440Z,13.47
2023-02-20T02:22:26.195Z,13.35
2023-02-20T02:25:32.951Z,14.82
2023-02-20T02:28:44.745Z,13.13
2023-02-20T02:31:11.482Z,14.40
2023-02-20T02:33:50.283Z,13.73
2023-02-20T02:36:44.366Z,14.23
2023-02-20T02:39:23.378Z,13.63
2023-02-20T02:41:55.951Z,13.73
2023-02-20T02:45:01.146Z,11.95
2023-02-20T02:47:36.211Z,14.13
2023-02-20T02:50:26.868Z,15.00
2023-02-20T02:52:55.395Z,13.40
2023-02-20T02:55:28.193Z,13.73
2023-02-20T02:57:55.643Z,11.32
2023-02-20T03:00:29.690Z,15.00
2023-02-20T03:03:18.314Z,14.77
2023-02-20T03:06:11.676Z,15.60
2023-02-20T03:08:57.356Z,14.07
2023-02-20T03:11:27.161Z,12.23
2023-02-20T03:14:16.056Z,12.83
2023-02-20T03:16:50.769Z,12.88
2023-02-20T03:19:41.670Z,13.02
2023-02-20T03:22:15.826Z,13.88
2023-02-20T03:24:56.606Z,13.13
2023-02-20T03:27:38.975Z,11.40
2023-02-20T03:30:19.180Z,12.20
2023-02-20T03:33:09.590Z,13.32
2023-02-20T03:35:58.818Z,11.88
2023-02-20T03:38:44.427Z,11.10
2023-02-20T03:41:33.023Z,12.20
2023-02-20T03:44:04.382Z,14.77
2023-02-20T03:46:33.566Z,13.15
2023-02-20T03:49:11.997Z,13.57
2023-02-20T03:51:39.896Z,13.50
2023-02-20T03:54:07.736Z,14.47
2023-02-20T03:56:44.322Z,14.63
2023-02-20T03:59:19.898Z,10.02
2023-02-20T04:01:49.192Z,10.38
2023-02-20T04:04:22.966Z,13.43
2023-02-20T04:06:52.299Z,10.83
2023-02-20T04:09:26.873Z,12.50
2023-02-20T04:12:03.337Z,10.85
2023-02-20T04:14:31.233Z,12.70
2023-02-20T04:17:19.614Z,13.68
2023-02-20T04:19:46.558Z,7.67
2023-02-20T04:22:29.050Z,11.27
2023-02-20T04:25:14.932Z,11.02
2023-02-20T04:27:41.988Z,10.40
2023-02-20T04:30:10.602Z,11.43
2023-02-20T04:32:37.554Z,12.77
2023-02-20T04:35:04.547Z,11.70
2023-02-20T04:37:31.345Z,11.32
2023-02-20T04:39:58.078Z,9.90
2023-02-20T04:42:24.790Z,11.70
2023-02-20T04:44:51.530Z,9.37
2023-02-20T04:47:19.127Z,11.35
2023-02-20T04:49:46.266Z,7.95
2023-02-20T04:52:13.037Z,6.68
2023-02-20T04:54:39.999Z,8.55
2023-02-20T04:57:07.005Z,7.87
2023-02-20T04:59:33.767Z,7.85
2023-02-20T05:02:02.053Z,6.97
2023-02-20T05:04:28.869Z,6.90
2023-02-20T05:06:56.131Z,8.05
2023-02-20T05:09:23.623Z,7.00
2023-02-20T05:11:50.850Z,6.57
2023-02-20T05:14:18.233Z,6.30
2023-02-20T05:16:45.665Z,5.85
2023-02-20T05:19:13.525Z,6.85
2023-02-20T05:22:03.641Z,7.23
2023-02-20T05:24:32.166Z,6.85
2023-02-20T05:26:59.394Z,6.38
2023-02-20T05:29:26.198Z,5.47
2023-02-20T05:31:53.197Z,6.97
2023-02-20T05:34:22.632Z,5.83
2023-02-20T05:36:49.574Z,6.22
2023-02-20T05:39:16.460Z,6.18
2023-02-20T05:41:43.403Z,6.70
2023-02-20T05:44:10.478Z,6.97
2023-02-20T05:46:41.886Z,6.13
2023-02-20T05:49:09.893Z,6.40
2023-02-20T05:51:36.651Z,6.90
2023-02-20T05:54:04.296Z,6.47
2023-02-20T05:56:32.932Z,6.57
2023-02-20T05:59:00.392Z,7.53
2023-02-20T06:01:29.157Z,5.90
2023-02-20T06:03:56.264Z,6.43
2023-02-20T06:06:23.753Z,5.85
2023-02-20T06:08:50.653Z,5.38
2023-02-20T06:11:17.649Z,6.03
2023-02-20T06:13:45.848Z,6.82
2023-02-20T06:16:13.428Z,6.72
2023-02-20T06:18:42.351Z,6.97
2023-02-20T06:21:12.184Z,7.47
2023-02-20T06:23:39.734Z,6.33
2023-02-20T06:26:07.476Z,7.93
2023-02-20T06:28:34.651Z,5.72
2023-02-20T06:31:02.223Z,6.63
2023-02-20T06:33:29.638Z,6.22
2023-02-20T06:35:56.810Z,5.30
2023-02-20T06:38:24.300Z,5.75
2023-02-20T06:40:51.101Z,4.97
2023-02-20T06:43:18.117Z,5.50
2023-02-20T06:45:44.900Z,5.28
2023-02-20T06:48:14.467Z,5.80
2023-02-20T06:50:42.055Z,5.97
2023-02-20T06:53:09.455Z,5.28
2023-02-20T06:55:36.245Z,5.20
2023-02-20T06:58:02.977Z,4.78
2023-02-20T07:00:29.963Z,5.10
2023-02-20T07:02:56.679Z,5.85
2023-02-20T07:05:23.417Z,5.00
2023-02-20T07:07:50.123Z,4.85
2023-02-20T07:10:16.914Z,4.85
2023-02-20T07:12:43.713Z,4.93
2023-02-20T07:15:13.209Z,4.70
2023-02-20T07:17:40.088Z,5.10
2023-02-20T07:20:07.630Z,4.40
2023-02-20T07:22:36.667Z,6.10
2023-02-20T07:25:03.520Z,5.27
2023-02-20T07:27:30.206Z,5.00
2023-02-20T07:29:56.878Z,4.55
2023-02-20T07:32:24.028Z,5.05
2023-02-20T07:35:02.686Z,5.68
2023-02-20T07:37:30.361Z,3.57
2023-02-20T07:39:57.092Z,4.63
2023-02-20T07:42:24.096Z,5.18
2023-02-20T07:44:57.909Z,5.63
2023-02-20T07:47:24.755Z,5.05
2023-02-20T07:49:51.737Z,4.53
2023-02-20T07:52:18.578Z,5.50
2023-02-20T07:54:45.351Z,3.85
2023-02-20T07:57:15.894Z,3.90
2023-02-20T07:59:42.688Z,6.03
2023-02-20T08:02:09.423Z,4.83
2023-02-20T08:04:36.147Z,4.50
2023-02-20T08:07:02.859Z,4.30
2023-02-20T08:09:29.799Z,4.25
2023-02-20T08:11:56.618Z,4.20
2023-02-20T08:14:23.588Z,4.77
2023-02-20T08:16:50.446Z,4.43
2023-02-20T08:19:17.259Z,4.80
2023-02-20T08:21:44.119Z,3.95
2023-02-20T08:24:10.860Z,4.97
2023-02-20T08:26:48.429Z,4.13
2023-02-20T08:29:16.287Z,5.13
2023-02-20T08:31:43.540Z,4.82
2023-02-20T08:34:10.418Z,4.80
2023-02-20T08:36:37.763Z,4.82
2023-02-20T08:39:04.893Z,5.50
2023-02-20T08:41:31.729Z,3.95
2023-02-20T08:43:58.774Z,5.30
2023-02-20T08:46:25.590Z,4.80
2023-02-20T08:48:52.505Z,4.68
2023-02-20T08:51:20.924Z,4.43
2023-02-20T08:53:47.656Z,4.68
2023-02-20T08:56:19.019Z,4.28
2023-02-20T08:58:45.786Z,4.38
2023-02-20T09:01:12.830Z,4.13
2023-02-20T09:03:41.779Z,4.17
2023-02-20T09:06:08.734Z,4.75
2023-02-20T09:08:35.925Z,4.72
2023-02-20T09:11:03.021Z,4.20
2023-02-20T09:13:29.957Z,4.57
2023-02-20T09:15:56.762Z,6.20
2023-02-20T09:18:23.510Z,4.10
2023-02-20T09:20:50.979Z,4.53
2023-02-20T09:23:18.242Z,4.13
2023-02-20T09:25:44.979Z,4.43
2023-02-20T09:28:12.230Z,5.00
2023-02-20T09:30:39.094Z,4.13
2023-02-20T09:33:05.880Z,4.30
2023-02-20T09:35:32.676Z,3.47
2023-02-20T09:37:59.538Z,3.90
2023-02-20T09:40:29.812Z,4.57
2023-02-20T09:43:13.254Z,4.93
2023-02-20T09:45:56.605Z,4.38
2023-02-20T09:48:26.197Z,4.68
2023-02-20T09:51:03.795Z,4.05
2023-02-20T09:53:40.785Z,5.00
2023-02-20T09:56:14.402Z,3.78
2023-02-20T09:59:09.696Z,4.47
2023-02-20T10:01:43.729Z,4.13
2023-02-20T10:04:18.640Z,3.58
2023-02-20T10:06:47.709Z,3.97
2023-02-20T10:09:15.686Z,4.05
2023-02-20T10:11:48.330Z,4.30
2023-02-20T10:14:36.128Z,3.78
2023-02-20T10:17:27.901Z,3.60
2023-02-20T10:20:10.423Z,4.07
2023-02-20T10:22:46.321Z,4.25
2023-02-20T10:25:27.207Z,4.32
2023-02-20T10:28:18.339Z,4.57
2023-02-20T10:30:59.179Z,4.07
2023-02-20T10:34:07.232Z,4.13
2023-02-20T10:36:37.685Z,4.30
2023-02-20T10:39:07.318Z,4.70
2023-02-20T10:42:25.575Z,4.82
2023-02-20T10:45:06.043Z,3.95
2023-02-20T10:47:45.287Z,3.90
2023-02-20T10:50:15.628Z,4.32
2023-02-20T10:52:54.634Z,4.30
2023-02-20T10:55:28.128Z,4.85
2023-02-20T10:58:05.274Z,3.70
2023-02-20T11:01:04.141Z,3.73
2023-02-20T11:03:45.922Z,5.25
2023-02-20T11:06:17.231Z,3.58
2023-02-20T11:08:48.285Z,4.15
2023-02-20T11:11:28.311Z,3.33
2023-02-20T11:13:55.185Z,3.60
2023-02-20T11:16:41.225Z,4.82
2023-02-20T11:19:19.856Z,4.43
2023-02-20T11:21:49.013Z,4.30
2023-02-20T11:24:18.586Z,4.78
2023-02-20T11:26:46.370Z,3.83
2023-02-20T11:29:16.859Z,3.75
2023-02-20T11:31:44.833Z,3.08
2023-02-20T11:34:19.287Z,3.30
2023-02-20T11:36:52.077Z,4.00
2023-02-20T11:39:21.623Z,3.60
2023-02-20T11:42:04.249Z,2.78
2023-02-20T11:44:31.120Z,2.92
2023-02-20T11:47:25.538Z,3.78
2023-02-20T11:50:20.670Z,3.25
2023-02-20T11:53:07.592Z,3.37
2023-02-20T11:55:35.527Z,3.83
2023-02-20T11:58:02.924Z,3.40
2023-02-20T12:00:46.310Z,3.25
2023-02-20T12:03:18.080Z,3.60
2023-02-20T12:05:46.797Z,3.03
2023-02-20T12:08:55.195Z,3.85
2023-02-20T12:11:26.382Z,3.83
2023-02-20T12:13:56.293Z,3.55
2023-02-20T12:16:26.724Z,4.18
2023-02-20T12:19:08.631Z,3.83
2023-02-20T12:21:49.621Z,3.47
2023-02-20T12:24:41.500Z,3.67
2023-02-20T12:27:31.077Z,3.08
2023-02-20T12:30:22.166Z,3.38
2023-02-20T12:33:06.466Z,3.30
2023-02-20T12:35:35.551Z,4.03
2023-02-20T12:38:32.691Z,4.10
2023-02-20T12:41:24.361Z,3.10
2023-02-20T12:44:12.442Z,4.50
2023-02-20T12:46:58.621Z,2.93
2023-02-20T12:49:53.219Z,3.22
2023-02-20T12:52:57.513Z,4.00
2023-02-20T12:56:01.984Z,4.18
2023-02-20T12:58:57.948Z,3.95
2023-02-20T13:01:38.514Z,3.50
2023-02-20T13:04:32.681Z,4.20
2023-02-20T13:07:21.158Z,4.07
2023-02-20T13:10:12.775Z,3.50
2023-02-20T13:12:39.587Z,3.28
2023-02-20T13:15:37.544Z,3.57
2023-02-20T13:18:18.019Z,3.55
2023-02-20T13:20:49.678Z,2.90
2023-02-20T13:23:16.419Z,2.58
2023-02-20T13:25:47.579Z,2.92
2023-02-20T13:28:39.313Z,4.27
2023-02-20T13:31:19.752Z,3.67
2023-02-20T13:33:49.189Z,3.15
2023-02-20T13:36:39.923Z,3.17
2023-02-20T13:39:19.103Z,3.30
2023-02-20T13:42:23.453Z,2.60
2023-02-20T13:44:50.799Z,3.15
2023-02-20T13:47:36.658Z,2.78
2023-02-20T13:50:24.210Z,3.28
2023-02-20T13:52:56.166Z,4.60
2023-02-20T13:55:25.578Z,4.73
2023-02-20T13:58:12.582Z,3.83
2023-02-20T14:00:52.046Z,3.67
2023-02-20T14:03:29.048Z,4.40
2023-02-20T14:06:16.169Z,3.53
2023-02-20T14:08:50.437Z,4.20
2023-02-20T14:11:23.185Z,5.80
2023-02-20T14:13:51.097Z,5.93
2023-02-20T14:16:35.338Z,4.00
2023-02-20T14:19:18.957Z,3.88
2023-02-20T14:21:46.076Z,4.27
2023-02-20T14:24:23.799Z,4.43
2023-02-20T14:26:55.848Z,4.15
2023-02-20T14:29:26.726Z,4.60
2023-02-20T14:31:56.038Z,4.20
2023-02-20T14:34:31.347Z,5.10
2023-02-20T14:37:12.594Z,5.63
2023-02-20T14:39:57.904Z,5.80
2023-02-20T14:42:25.890Z,5.60
2023-02-20T14:45:17.217Z,5.45
2023-02-20T14:47:55.269Z,5.87
2023-02-20T14:50:25.336Z,5.03
2023-02-20T14:53:18.304Z,4.45
2023-02-20T14:55:45.341Z,6.22
2023-02-20T14:58:19.173Z,5.60
2023-02-20T15:00:48.951Z,5.40
2023-02-20T15:03:30.333Z,5.20
2023-02-20T15:06:04.837Z,5.63
2023-02-20T15:08:37.895Z,6.07
2023-02-20T15:11:15.526Z,5.75
2023-02-20T15:13:45.078Z,5.57
2023-02-20T15:16:12.492Z,5.90
2023-02-20T15:18:50.331Z,4.32
2023-02-20T15:21:41.279Z,4.88
2023-02-20T15:24:27.935Z,4.72
2023-02-20T15:26:54.798Z,5.57
2023-02-20T15:29:25.928Z,5.55
2023-02-20T15:32:22.802Z,6.50
2023-02-20T15:34:53.047Z,6.82
2023-02-20T15:37:30.027Z,6.32
2023-02-20T15:40:23.503Z,7.23
2023-02-20T15:42:56.614Z,5.72
2023-02-20T15:45:30.069Z,7.43
2023-02-20T15:47:58.613Z,5.95
2023-02-20T15:50:28.532Z,4.68
2023-02-20T15:52:56.954Z,3.60
2023-02-20T15:55:24.414Z,5.18
2023-02-20T15:57:56.729Z,4.20
2023-02-20T16:00:31.398Z,4.30
2023-02-20T16:02:59.359Z,5.70
2023-02-20T16:05:27.003Z,5.47
2023-02-20T16:07:53.844Z,6.28
2023-02-20T16:10:24.865Z,5.43
2023-02-20T16:12:56.807Z,5.68
2023-02-20T16:15:25.443Z,5.85
2023-02-20T16:17:53.023Z,5.20
2023-02-20T16:20:24.284Z,6.05
2023-02-20T16:22:51.651Z,6.28
2023-02-20T16:25:20.677Z,6.68
2023-02-20T16:27:52.544Z,7.85
2023-02-20T16:30:41.061Z,6.23
2023-02-20T16:33:24.350Z,5.78
2023-02-20T16:35:55.119Z,7.07
2023-02-20T16:38:22.308Z,8.48
2023-02-20T16:40:54.550Z,7.30
2023-02-20T16:43:23.098Z,9.23
2023-02-20T16:45:50.527Z,7.93
2023-02-20T16:48:19.695Z,7.05
2023-02-20T16:50:53.118Z,6.43
2023-02-20T16:53:20.602Z,7.85
2023-02-20T16:55:48.855Z,5.47
2023-02-20T16:58:15.656Z,6.25
2023-02-20T17:00:56.286Z,7.25
2023-02-20T17:03:24.042Z,7.43
2023-02-20T17:05:58.171Z,5.00
2023-02-20T17:08:25.767Z,6.80
2023-02-20T17:10:52.739Z,7.93
2023-02-20T17:13:19.507Z,8.25
2023-02-20T17:15:47.931Z,6.88
2023-02-20T17:18:15.415Z,7.18
2023-02-20T17:20:42.184Z,6.17
2023-02-20T17:23:08.958Z,7.18
2023-02-20T17:25:36.050Z,6.00
2023-02-20T17:28:03.541Z,6.47
2023-02-20T17:30:30.520Z,6.25
2023-02-20T17:32:57.291Z,8.70
2023-02-20T17:35:24.057Z,8.55
2023-02-20T17:37:50.857Z,7.80
2023-02-20T17:40:17.863Z,9.57
2023-02-20T17:42:44.622Z,10.88
2023-02-20T17:45:11.852Z,10.07
2023-02-20T17:47:39.453Z,10.40
2023-02-20T17:50:06.650Z,10.52
2023-02-20T17:52:33.619Z,8.90
2023-02-20T17:55:00.334Z,9.00
2023-02-20T17:57:28.334Z,7.90
2023-02-20T17:59:55.199Z,9.38
2023-02-20T18:02:21.957Z,8.98
2023-02-20T18:04:48.717Z,9.40
2023-02-20T18:07:17.321Z,10.95
2023-02-20T18:09:44.487Z,8.30
2023-02-20T18:12:11.278Z,9.20
2023-02-20T18:14:38.333Z,11.07
2023-02-20T18:17:05.144Z,11.38
2023-02-20T18:19:32.457Z,11.57
2023-02-20T18:21:59.590Z,11.37
2023-02-20T18:24:26.780Z,8.38
2023-02-20T18:26:54.374Z,8.85
2023-02-20T18:29:22.036Z,11.98
2023-02-20T18:31:49.956Z,12.38
2023-02-20T18:34:17.833Z,11.33
2023-02-20T18:36:45.220Z,11.55
2023-02-20T18:39:13.784Z,8.82
2023-02-20T18:41:41.457Z,9.27
2023-02-20T18:44:09.327Z,10.00
2023-02-20T18:46:39.705Z,10.20
2023-02-20T18:49:06.961Z,9.27
2023-02-20T18:51:36.599Z,8.48
2023-02-20T18:54:07.895Z,8.07
2023-02-20T18:56:36.340Z,8.82
2023-02-20T18:59:27.323Z,7.53
2023-02-20T19:01:55.533Z,7.55
2023-02-20T19:04:22.752Z,7.55
2023-02-20T19:06:51.474Z,7.03
2023-02-20T19:09:23.580Z,7.18
2023-02-20T19:11:55.835Z,8.50
2023-02-20T19:14:25.044Z,6.45
2023-02-20T19:16:54.871Z,8.43
2023-02-20T19:19:24.859Z,6.40
2023-02-20T19:21:53.215Z,7.90
2023-02-20T19:24:21.054Z,7.23
2023-02-20T19:26:47.909Z,8.57
2023-02-20T19:29:14.698Z,7.50
2023-02-20T19:31:41.486Z,9.10
2023-02-20T19:34:08.312Z,8.95
2023-02-20T19:36:39.731Z,8.03
2023-02-20T19:39:06.532Z,9.27
2023-02-20T19:41:35.164Z,8.25
2023-02-20T19:44:02.300Z,8.43
2023-02-20T19:46:29.610Z,7.72
2023-02-20T19:48:56.316Z,8.73
2023-02-20T19:51:23.480Z,9.15
2023-02-20T19:53:50.434Z,9.00
2023-02-20T19:56:17.372Z,9.68
2023-02-20T19:58:44.325Z,9.73
2023-02-20T20:01:17.264Z,7.80
2023-02-20T20:03:45.230Z,9.05
2023-02-20T20:06:13.130Z,8.88
2023-02-20T20:08:43.720Z,8.82
2023-02-20T20:11:18.371Z,10.68
2023-02-20T20:13:45.096Z,10.77
2023-02-20T20:16:12.168Z,9.10
2023-02-20T20:18:39.058Z,9.55
2023-02-20T20:21:05.942Z,10.32
2023-02-20T20:23:32.738Z,11.48
2023-02-20T20:25:59.430Z,10.50
2023-02-20T20:28:26.165Z,9.43
2023-02-20T20:30:52.953Z,9.35
2023-02-20T20:33:19.676Z,9.82
2023-02-20T20:35:46.639Z,9.65
2023-02-20T20:38:13.490Z,10.77
2023-02-20T20:40:40.310Z,10.68
2023-02-20T20:43:07.729Z,10.85
2023-02-20T20:45:34.490Z,9.43
2023-02-20T20:48:05.399Z,9.57
2023-02-20T20:50:32.080Z,10.00
2023-02-20T20:53:00.805Z,10.13
2023-02-20T20:55:30.003Z,10.95
2023-02-20T20:57:57.166Z,11.55
2023-02-20T21:00:32.291Z,10.18
2023-02-20T21:02:59.155Z,10.63
2023-02-20T21:05:29.907Z,10.55
2023-02-20T21:07:59.550Z,9.23
2023-02-20T21:10:27.136Z,10.70
2023-02-20T21:12:54.261Z,10.60
2023-02-20T21:15:29.191Z,11.10
2023-02-20T21:17:56.074Z,11.07
2023-02-20T21:20:25.953Z,11.35
2023-02-20T21:22:53.263Z,9.85
2023-02-20T21:25:25.299Z,10.70
2023-02-20T21:27:54.188Z,11.37
2023-02-20T21:30:22.722Z,10.32
2023-02-20T21:32:50.001Z,10.73
2023-02-20T21:35:18.552Z,10.02
2023-02-20T21:37:45.318Z,10.27
2023-02-20T21:40:12.576Z,8.30
2023-02-20T21:42:57.862Z,7.93
2023-02-20T21:45:24.583Z,10.52
2023-02-20T21:47:51.331Z,9.23
2023-02-20T21:50:19.207Z,9.77
2023-02-20T21:52:46.557Z,9.97
2023-02-20T21:55:15.591Z,10.20
2023-02-20T21:57:42.742Z,10.50
2023-02-20T22:00:10.929Z,10.13
2023-02-20T22:02:38.328Z,10.35
2023-02-20T22:05:06.565Z,10.37
2023-02-20T22:07:51.753Z,9.38
2023-02-20T22:10:37.138Z,9.25
2023-02-20T22:13:22.968Z,8.95
2023-02-20T22:16:08.424Z,9.35
2023-02-20T22:18:53.921Z,7.47
2023-02-20T22:21:41.311Z,9.35
2023-02-20T22:24:37.405Z,9.95
2023-02-20T22:27:27.806Z,9.57
2023-02-20T22:30:14.135Z,9.45
2023-02-20T22:32:59.517Z,9.60
2023-02-20T22:35:45.042Z,9.65
2023-02-20T22:38:30.456Z,10.45
2023-02-20T22:41:16.125Z,10.25
2023-02-20T22:44:01.636Z,9.80
2023-02-20T22:46:47.061Z,10.20
2023-02-20T22:49:32.355Z,10.48
2023-02-20T22:52:17.788Z,10.55
2023-02-20T22:55:05.700Z,12.15
2023-02-20T22:57:51.757Z,11.50
2023-02-20T23:00:37.291Z,11.53
2023-02-20T23:03:23.325Z,9.95
2023-02-20T23:06:17.575Z,11.73
2023-02-20T23:09:05.063Z,9.20
2023-02-20T23:11:55.270Z,11.30
2023-02-20T23:14:41.252Z,9.90
2023-02-20T23:17:40.555Z,11.68
2023-02-20T23:20:33.229Z,9.45
2023-02-20T23:23:18.870Z,12.30
2023-02-20T23:26:04.653Z,13.10
2023-02-20T23:28:50.454Z,11.77
2023-02-20T23:31:36.819Z,12.95
2023-02-20T23:34:23.364Z,10.93
2023-02-20T23:37:11.190Z,13.30
2023-02-20T23:39:56.730Z,9.80
2023-02-20T23:42:42.214Z,12.27
2023-02-20T23:45:28.048Z,11.13
2023-02-20T23:48:13.199Z,11.15
2023-02-20T23:50:58.711Z,9.65
2023-02-20T23:53:43.821Z,11.15
2023-02-20T23:56:29.437Z,12.43
2023-02-20T23:59:14.594Z,9.85
